Time;durP1;ratioP1;P1;durP2;ratioP2;P2;SDS_P1;SDS_P2;PMS_P1;PMS_P2;Temp;Humidity;BMP_temperature;BMP_pressure;BME280_temperature;BME280_humidity;BME280_pressure;Samples;Min_cycle;Max_cycle;Signal;HPM_P1;HPM_P2
2023/03/07 00:00:11;;;;;;;29.70;18.55;;;;;;;;;;5033454;28;20028;-38
2023/03/07 00:02:37;;;;;;;32.58;18.15;;;;;;;;;;5031747;28;20044;-38
2023/03/07 00:05:03;;;;;;;34.78;19.65;;;;;;;;;;5032995;28;20112;-38
2023/03/07 00:07:32;;;;;;;29.88;15.25;;;;;;;;;;5038966;28;20128;-38
2023/03/07 00:09:58;;;;;;;28.58;16.35;;;;;;;;;;5032381;28;20037;-38
2023/03/07 00:12:23;;;;;;;24.73;16.55;;;;;;;;;;5033201;28;20988;-37
2023/03/07 00:14:49;;;;;;;29.00;18.70;;;;;;;;;;5032379;28;20035;-38
2023/03/07 00:17:14;;;;;;;36.25;20.08;;;;;;;;;;5035293;28;20129;-38
2023/03/07 00:19:49;;;;;;;33.00;20.98;;;;;;;;;;5029018;28;20026;-38
2023/03/07 00:22:14;;;;;;;30.73;20.48;;;;;;;;;;5026766;28;20033;-37
2023/03/07 00:24:40;;;;;;;31.70;19.52;;;;;;;;;;5036540;28;20041;-38
2023/03/07 00:27:05;;;;;;;29.85;18.52;;;;;;;;;;5036499;28;20115;-37
2023/03/07 00:29:31;;;;;;;30.33;18.08;;;;;;;;;;5030718;28;20083;-38
2023/03/07 00:32:05;;;;;;;30.92;18.65;;;;;;;;;;5031085;28;20045;-39
2023/03/07 00:34:31;;;;;;;34.03;17.75;;;;;;;;;;5027847;28;20040;-38
2023/03/07 00:36:56;;;;;;;25.20;16.35;;;;;;;;;;5026927;28;20134;-37
2023/03/07 00:39:22;;;;;;;25.50;16.17;;;;;;;;;;5035664;28;20032;-37
2023/03/07 00:41:47;;;;;;;29.92;17.27;;;;;;;;;;5030326;28;20504;-38
2023/03/07 00:44:12;;;;;;;26.55;17.15;;;;;;;;;;5027558;28;20041;-38
2023/03/07 00:46:38;;;;;;;26.33;15.90;;;;;;;;;;5027493;28;20503;-38
2023/03/07 00:49:09;;;;;;;25.80;15.80;;;;;;;;;;5031997;28;20016;-38
2023/03/07 00:51:34;;;;;;;27.42;15.10;;;;;;;;;;5033617;28;20048;-39
2023/03/07 00:54:08;;;;;;;30.02;17.80;;;;;;;;;;5033707;28;20032;-39
2023/03/07 00:56:34;;;;;;;28.20;17.52;;;;;;;;;;5034746;28;20099;-38
2023/03/07 00:58:59;;;;;;;20.85;14.65;;;;;;;;;;5031106;28;20028;-39
2023/03/07 01:01:25;;;;;;;25.98;14.88;;;;;;;;;;5033629;28;20041;-37
2023/03/07 01:03:56;;;;;;;22.55;14.20;;;;;;;;;;5031400;28;20037;-37
2023/03/07 01:06:24;;;;;;;27.00;15.97;;;;;;;;;;5034154;28;20124;-38
2023/03/07 01:08:54;;;;;;;33.80;17.50;;;;;;;;;;5034091;28;20470;-38
2023/03/07 01:11:19;;;;;;;22.75;14.73;;;;;;;;;;5033758;28;20402;-37
2023/03/07 01:13:56;;;;;;;29.48;14.65;;;;;;;;;;5030316;28;20026;-37
2023/03/07 01:16:24;;;;;;;20.83;12.45;;;;;;;;;;5027483;28;20048;-37
2023/03/07 01:19:01;;;;;;;23.13;13.45;;;;;;;;;;5035259;28;20022;-38
2023/03/07 01:21:29;;;;;;;24.88;12.80;;;;;;;;;;5034440;28;20044;-38
2023/03/07 01:24:09;;;;;;;24.00;13.60;;;;;;;;;;5031484;28;20033;-38
2023/03/07 01:26:35;;;;;;;25.23;13.95;;;;;;;;;;5032297;28;20521;-37
2023/03/07 01:29:12;;;;;;;21.67;14.10;;;;;;;;;;5031639;28;20029;-39
2023/03/07 01:31:37;;;;;;;28.33;15.57;;;;;;;;;;5032553;28;20045;-38
2023/03/07 01:34:15;;;;;;;30.08;17.38;;;;;;;;;;5030136;28;20461;-38
2023/03/07 01:36:41;;;;;;;29.08;16.20;;;;;;;;;;5032678;28;20824;-38
2023/03/07 01:39:16;;;;;;;26.90;15.10;;;;;;;;;;5034486;28;20036;-38
2023/03/07 01:41:42;;;;;;;23.85;13.95;;;;;;;;;;5031465;28;21936;-38
2023/03/07 01:44:24;;;;;;;24.90;14.20;;;;;;;;;;5033503;28;20108;-38
2023/03/07 01:46:52;;;;;;;25.60;14.43;;;;;;;;;;5030491;28;20409;-39
2023/03/07 01:49:29;;;;;;;21.88;13.48;;;;;;;;;;5036955;28;20048;-39
2023/03/07 01:52:06;;;;;;;21.60;13.52;;;;;;;;;;5031794;28;20044;-38
2023/03/07 01:54:35;;;;;;;23.90;15.35;;;;;;;;;;5054315;28;20128;-38
2023/03/07 01:57:02;;;;;;;25.67;15.55;;;;;;;;;;5033866;28;20496;-39
2023/03/07 01:59:38;;;;;;;24.63;14.85;;;;;;;;;;5035130;28;20049;-38
2023/03/07 02:02:07;;;;;;;26.73;14.35;;;;;;;;;;5031862;28;20437;-38
2023/03/07 02:04:59;;;;;;;26.58;14.55;;;;;;;;;;5034750;28;20087;-38
2023/03/07 02:07:28;;;;;;;20.83;12.63;;;;;;;;;;5030814;28;20041;-39
2023/03/07 02:10:00;;;;;;;21.50;11.73;;;;;;;;;;5032283;28;20032;-38
2023/03/07 02:12:26;;;;;;;20.13;12.15;;;;;;;;;;5033988;28;20037;-38
2023/03/07 02:14:52;;;;;;;24.20;15.15;;;;;;;;;;5028837;28;20071;-38
2023/03/07 02:17:18;;;;;;;20.30;13.57;;;;;;;;;;5035441;28;20033;-38
2023/03/07 02:19:44;;;;;;;28.33;15.00;;;;;;;;;;5030723;28;20060;-38
2023/03/07 02:22:16;;;;;;;25.63;14.93;;;;;;;;;;5038237;28;20091;-37
2023/03/07 02:24:50;;;;;;;49.17;27.70;;;;;;;;;;5030531;28;20029;-38
2023/03/07 02:27:24;;;;;;;32.97;19.38;;;;;;;;;;5034201;28;20555;-38
2023/03/07 02:29:49;;;;;;;25.30;14.90;;;;;;;;;;5029378;28;20389;-42
2023/03/07 02:32:14;;;;;;;22.58;15.07;;;;;;;;;;5035490;28;20041;-37
2023/03/07 02:34:40;;;;;;;25.52;14.63;;;;;;;;;;5036196;28;20034;-38
2023/03/07 02:37:11;;;;;;;24.48;13.90;;;;;;;;;;5032328;28;20052;-38
2023/03/07 02:39:40;;;;;;;20.55;13.32;;;;;;;;;;5039525;28;20444;-38
2023/03/07 02:42:27;;;;;;;34.88;16.67;;;;;;;;;;5035382;28;20055;-37
2023/03/07 02:45:00;;;;;;;27.40;14.80;;;;;;;;;;5031392;28;20025;-37
2023/03/07 02:47:26;;;;;;;28.65;14.93;;;;;;;;;;5031948;28;20481;-37
2023/03/07 02:49:52;;;;;;;23.10;15.05;;;;;;;;;;5046821;28;20029;-37
2023/03/07 02:52:18;;;;;;;24.98;15.07;;;;;;;;;;5034212;28;20103;-37
2023/03/07 02:54:43;;;;;;;27.50;16.63;;;;;;;;;;5033188;28;20441;-38
2023/03/07 02:57:09;;;;;;;28.13;16.52;;;;;;;;;;5034635;28;20081;-37
2023/03/07 02:59:35;;;;;;;26.77;15.88;;;;;;;;;;5040949;28;20032;-38
2023/03/07 03:02:00;;;;;;;27.35;16.33;;;;;;;;;;5034255;28;20071;-37
2023/03/07 03:04:26;;;;;;;29.85;16.42;;;;;;;;;;5027849;28;20033;-38
2023/03/07 03:06:51;;;;;;;25.05;15.73;;;;;;;;;;5033273;28;20037;-38
2023/03/07 03:09:16;;;;;;;31.10;16.45;;;;;;;;;;5038627;28;20025;-38
2023/03/07 03:11:42;;;;;;;21.80;15.23;;;;;;;;;;5037829;28;20046;-38
2023/03/07 03:14:16;;;;;;;35.33;16.15;;;;;;;;;;5036899;28;20028;-44
2023/03/07 03:16:42;;;;;;;24.23;14.50;;;;;;;;;;5034601;28;20112;-38
2023/03/07 03:19:07;;;;;;;23.77;15.45;;;;;;;;;;5033411;28;20108;-38
2023/03/07 03:21:33;;;;;;;30.38;15.95;;;;;;;;;;5041047;28;20522;-38
2023/03/07 03:24:06;;;;;;;24.23;15.82;;;;;;;;;;5034635;28;20036;-37
2023/03/07 03:26:33;;;;;;;22.77;13.30;;;;;;;;;;5032337;28;20039;-38
2023/03/07 03:28:58;;;;;;;24.73;13.88;;;;;;;;;;5039246;28;20129;-38
2023/03/07 03:31:24;;;;;;;23.38;13.52;;;;;;;;;;5034223;28;20554;-40
2023/03/07 03:33:51;;;;;;;22.65;14.55;;;;;;;;;;5034346;28;20377;-37
2023/03/07 03:36:17;;;;;;;21.80;14.52;;;;;;;;;;5027138;28;20044;-38
2023/03/07 03:38:45;;;;;;;30.10;16.17;;;;;;;;;;5030648;28;20448;-38
2023/03/07 03:41:16;;;;;;;29.48;15.32;;;;;;;;;;5034609;28;20029;-37
2023/03/07 03:43:51;;;;;;;29.17;15.55;;;;;;;;;;5027223;28;20037;-37
2023/03/07 03:46:18;;;;;;;28.98;15.25;;;;;;;;;;5039202;28;20488;-37
2023/03/07 03:48:54;;;;;;;26.35;16.40;;;;;;;;;;5033104;28;20116;-38
2023/03/07 03:51:21;;;;;;;28.27;15.90;;;;;;;;;;5033348;28;20520;-38
2023/03/07 03:53:47;;;;;;;25.10;15.73;;;;;;;;;;5035769;28;20029;-38
2023/03/07 03:56:21;;;;;;;25.83;15.98;;;;;;;;;;5033493;28;20078;-37
2023/03/07 03:58:51;;;;;;;23.92;14.88;;;;;;;;;;5033067;28;20021;-37
2023/03/07 04:01:18;;;;;;;27.25;16.08;;;;;;;;;;5034728;28;20059;-38
2023/03/07 04:03:45;;;;;;;28.67;14.98;;;;;;;;;;5032066;28;20532;-39
2023/03/07 04:06:23;;;;;;;23.15;14.57;;;;;;;;;;5038812;28;20035;-39
2023/03/07 04:08:49;;;;;;;24.45;15.10;;;;;;;;;;5029980;28;20061;-37
2023/03/07 04:11:22;;;;;;;24.70;14.68;;;;;;;;;;5036922;28;20053;-38
2023/03/07 04:13:47;;;;;;;24.08;14.85;;;;;;;;;;5034046;28;20104;-38
2023/03/07 04:16:13;;;;;;;22.45;14.25;;;;;;;;;;5033680;28;21687;-38
2023/03/07 04:18:39;;;;;;;28.50;15.88;;;;;;;;;;5031065;28;20052;-38
2023/03/07 04:21:05;;;;;;;31.27;16.13;;;;;;;;;;5029961;28;20022;-38
2023/03/07 04:23:39;;;;;;;28.58;16.35;;;;;;;;;;5032036;28;20026;-39
2023/03/07 04:26:06;;;;;;;28.98;16.48;;;;;;;;;;5028269;28;20032;-38
2023/03/07 04:28:48;;;;;;;24.23;16.17;;;;;;;;;;5036308;28;20112;-38
2023/03/07 04:31:19;;;;;;;28.42;16.08;;;;;;;;;;5026746;28;20052;-40
2023/03/07 04:33:55;;;;;;;23.42;15.57;;;;;;;;;;5038205;28;20490;-38
2023/03/07 04:36:21;;;;;;;27.88;16.23;;;;;;;;;;5029696;28;21655;-37
2023/03/07 04:38:56;;;;;;;24.50;16.23;;;;;;;;;;5032991;28;20500;-37
2023/03/07 04:41:25;;;;;;;27.25;15.25;;;;;;;;;;5030031;28;20049;-38
2023/03/07 04:43:50;;;;;;;28.23;15.48;;;;;;;;;;5033658;28;20059;-38
2023/03/07 04:46:17;;;;;;;23.77;16.08;;;;;;;;;;5032824;28;20501;-37
2023/03/07 04:48:43;;;;;;;34.33;15.82;;;;;;;;;;5031938;28;20543;-37
2023/03/07 04:51:09;;;;;;;31.55;15.10;;;;;;;;;;5033718;28;20037;-37
2023/03/07 04:53:35;;;;;;;25.25;14.20;;;;;;;;;;5033821;28;20101;-38
2023/03/07 04:56:02;;;;;;;30.90;15.32;;;;;;;;;;5034266;28;20033;-38
2023/03/07 04:58:29;;;;;;;28.13;15.68;;;;;;;;;;5049134;28;20029;-38
2023/03/07 05:00:58;;;;;;;24.98;14.77;;;;;;;;;;5035086;28;20021;-37
2023/03/07 05:03:25;;;;;;;26.33;15.25;;;;;;;;;;5032147;28;20087;-38
2023/03/07 05:05:50;;;;;;;26.73;16.10;;;;;;;;;;5032421;28;20030;-38
2023/03/07 05:08:16;;;;;;;27.67;15.18;;;;;;;;;;5037694;28;20437;-37
2023/03/07 05:10:41;;;;;;;25.52;14.50;;;;;;;;;;5030453;28;20036;-38
2023/03/07 05:13:07;;;;;;;25.52;15.00;;;;;;;;;;5034008;28;20045;-38
2023/03/07 05:15:35;;;;;;;28.08;15.65;;;;;;;;;;5032768;28;20037;-38
2023/03/07 05:18:01;;;;;;;35.00;20.70;;;;;;;;;;5024537;28;20065;-37
2023/03/07 05:20:28;;;;;;;29.38;18.08;;;;;;;;;;5032799;28;20076;-38
2023/03/07 05:23:02;;;;;;;36.13;21.48;;;;;;;;;;5028071;28;20038;-39
2023/03/07 05:25:28;;;;;;;33.75;19.75;;;;;;;;;;5032703;28;20421;-39
2023/03/07 05:27:53;;;;;;;29.33;16.85;;;;;;;;;;5017628;28;20029;-38
2023/03/07 05:30:20;;;;;;;31.40;16.35;;;;;;;;;;5035647;28;20063;-38
2023/03/07 05:32:45;;;;;;;28.67;15.13;;;;;;;;;;5032928;28;20457;-37
2023/03/07 05:35:11;;;;;;;21.90;14.88;;;;;;;;;;5026623;28;20026;-37
2023/03/07 05:37:36;;;;;;;33.45;16.25;;;;;;;;;;5030332;28;20045;-37
2023/03/07 05:40:06;;;;;;;35.22;16.75;;;;;;;;;;5034314;28;20079;-37
2023/03/07 05:42:32;;;;;;;25.20;15.30;;;;;;;;;;5030102;28;20120;-37
2023/03/07 05:45:00;;;;;;;23.52;15.10;;;;;;;;;;5034041;28;20443;-38
2023/03/07 05:47:26;;;;;;;22.63;14.45;;;;;;;;;;5035698;28;20100;-38
2023/03/07 05:50:05;;;;;;;28.77;15.75;;;;;;;;;;5029441;28;20038;-38
2023/03/07 05:52:30;;;;;;;36.00;16.17;;;;;;;;;;5028799;28;20520;-38
2023/03/07 05:55:05;;;;;;;35.97;15.98;;;;;;;;;;5025193;28;20036;-38
2023/03/07 05:57:30;;;;;;;28.25;15.40;;;;;;;;;;5026756;28;20038;-37
2023/03/07 06:00:06;;;;;;;26.60;15.88;;;;;;;;;;5027753;28;20037;-38
2023/03/07 06:02:31;;;;;;;26.08;15.85;;;;;;;;;;5030978;28;20042;-37
2023/03/07 06:05:06;;;;;;;26.98;15.70;;;;;;;;;;5017187;28;20045;-38
2023/03/07 06:07:37;;;;;;;35.58;20.25;;;;;;;;;;5019669;28;20042;-37
2023/03/07 06:10:03;;;;;;;50.70;26.73;;;;;;;;;;5016043;28;20038;-37
2023/03/07 06:12:28;;;;;;;41.72;20.25;;;;;;;;;;5016053;28;20250;-38
2023/03/07 06:14:53;;;;;;;23.60;14.32;;;;;;;;;;5025005;28;20482;-38
2023/03/07 06:17:20;;;;;;;30.27;15.65;;;;;;;;;;5025092;28;20060;-38
2023/03/07 06:19:51;;;;;;;24.65;16.10;;;;;;;;;;5023529;28;20029;-38
2023/03/07 06:22:16;;;;;;;29.75;16.30;;;;;;;;;;5028429;28;20603;-37
2023/03/07 06:24:42;;;;;;;30.42;15.10;;;;;;;;;;5029680;28;20025;-37
2023/03/07 06:27:13;;;;;;;26.05;15.85;;;;;;;;;;5030995;28;20111;-38
2023/03/07 06:29:45;;;;;;;27.80;16.90;;;;;;;;;;5029730;28;20041;-37
2023/03/07 06:32:10;;;;;;;24.85;15.95;;;;;;;;;;5022065;28;20389;-38
2023/03/07 06:34:36;;;;;;;27.67;16.15;;;;;;;;;;5033499;28;20029;-38
2023/03/07 06:37:02;;;;;;;28.30;16.52;;;;;;;;;;5033482;28;20038;-38
2023/03/07 06:39:27;;;;;;;27.70;16.75;;;;;;;;;;5037257;28;20096;-37
2023/03/07 06:41:52;;;;;;;24.88;15.23;;;;;;;;;;5038279;28;20048;-41
2023/03/07 06:44:24;;;;;;;26.63;16.35;;;;;;;;;;5037206;28;20228;-38
2023/03/07 06:46:49;;;;;;;24.90;14.98;;;;;;;;;;5029404;28;20055;-37
2023/03/07 06:49:15;;;;;;;30.83;19.15;;;;;;;;;;5032961;28;20503;-37
2023/03/07 06:51:40;;;;;;;32.40;16.98;;;;;;;;;;5033359;28;20091;-38
2023/03/07 06:54:06;;;;;;;30.42;17.60;;;;;;;;;;5032343;28;20029;-39
2023/03/07 06:56:33;;;;;;;34.28;17.60;;;;;;;;;;5033497;28;20041;-38
2023/03/07 06:58:58;;;;;;;30.80;18.00;;;;;;;;;;5037600;28;20064;-37
2023/03/07 07:01:24;;;;;;;35.13;19.17;;;;;;;;;;5035963;28;20517;-37
2023/03/07 07:03:49;;;;;;;26.83;18.38;;;;;;;;;;5028657;28;20362;-40
2023/03/07 07:06:14;;;;;;;29.92;17.35;;;;;;;;;;5031582;28;20046;-38
2023/03/07 07:08:46;;;;;;;33.70;18.33;;;;;;;;;;5021944;28;20043;-38
2023/03/07 07:11:11;;;;;;;24.13;15.52;;;;;;;;;;5033044;28;20029;-38
2023/03/07 07:13:37;;;;;;;24.65;16.05;;;;;;;;;;5026325;28;20033;-37
2023/03/07 07:16:13;;;;;;;29.85;15.45;;;;;;;;;;5019693;28;20053;-38
2023/03/07 07:18:38;;;;;;;27.73;16.15;;;;;;;;;;5029252;28;20037;-39
2023/03/07 07:21:04;;;;;;;28.98;16.10;;;;;;;;;;5023614;28;20040;-38
2023/03/07 07:23:30;;;;;;;29.27;15.98;;;;;;;;;;5033254;28;20037;-38
2023/03/07 07:25:55;;;;;;;26.40;17.08;;;;;;;;;;5029165;28;20462;-39
2023/03/07 07:28:21;;;;;;;28.77;17.90;;;;;;;;;;5030511;28;20490;-38
2023/03/07 07:30:46;;;;;;;43.45;24.70;;;;;;;;;;5035629;28;20045;-38
2023/03/07 07:33:20;;;;;;;34.95;20.98;;;;;;;;;;5031305;28;20048;-39
2023/03/07 07:35:46;;;;;;;36.88;19.38;;;;;;;;;;5029845;28;20077;-39
2023/03/07 07:38:12;;;;;;;28.83;16.08;;;;;;;;;;5034736;28;20053;-39
2023/03/07 07:40:38;;;;;;;31.83;18.38;;;;;;;;;;5036916;28;20037;-39
2023/03/07 07:43:04;;;;;;;25.98;15.70;;;;;;;;;;5034106;28;20044;-38
2023/03/07 07:45:29;;;;;;;32.97;17.92;;;;;;;;;;5032333;28;20754;-42
2023/03/07 07:47:55;;;;;;;30.23;15.98;;;;;;;;;;5037999;28;20061;-38
2023/03/07 07:50:23;;;;;;;28.38;16.83;;;;;;;;;;5041219;28;20033;-38
2023/03/07 07:52:51;;;;;;;31.67;18.35;;;;;;;;;;5037459;28;20139;-38
2023/03/07 07:55:26;;;;;;;32.80;17.60;;;;;;;;;;5031791;28;20029;-38
2023/03/07 07:57:51;;;;;;;32.67;19.58;;;;;;;;;;5033684;28;20505;-38
2023/03/07 08:00:25;;;;;;;29.70;17.10;;;;;;;;;;5036178;28;20169;-38
2023/03/07 08:02:51;;;;;;;40.50;18.20;;;;;;;;;;5037625;28;21237;-38
2023/03/07 08:05:25;;;;;;;29.42;16.90;;;;;;;;;;5042966;28;20025;-38
2023/03/07 08:07:56;;;;;;;33.22;16.58;;;;;;;;;;5031190;28;20124;-38
2023/03/07 08:10:22;;;;;;;32.25;16.55;;;;;;;;;;5031688;28;20500;-38
2023/03/07 08:12:52;;;;;;;35.17;18.38;;;;;;;;;;5022137;28;20042;-38
2023/03/07 08:15:20;;;;;;;41.83;18.50;;;;;;;;;;5024984;28;20486;-38
2023/03/07 08:17:47;;;;;;;27.85;16.17;;;;;;;;;;5027976;28;20095;-38
2023/03/07 08:20:13;;;;;;;27.52;15.85;;;;;;;;;;5028680;28;20025;-38
2023/03/07 08:22:39;;;;;;;26.25;15.88;;;;;;;;;;5031208;28;20041;-38
2023/03/07 08:25:06;;;;;;;29.05;15.60;;;;;;;;;;5023388;28;20026;-38
2023/03/07 08:27:32;;;;;;;29.83;16.00;;;;;;;;;;5029133;28;20509;-38
2023/03/07 08:29:59;;;;;;;29.60;16.73;;;;;;;;;;5033256;28;20047;-38
2023/03/07 08:32:27;;;;;;;39.00;19.58;;;;;;;;;;5034261;28;20064;-38
2023/03/07 08:34:53;;;;;;;26.45;15.27;;;;;;;;;;5033593;28;20028;-38
2023/03/07 08:37:18;;;;;;;27.52;16.23;;;;;;;;;;5029133;28;20054;-38
2023/03/07 08:39:43;;;;;;;33.95;16.67;;;;;;;;;;5030295;28;20408;-39
2023/03/07 08:42:09;;;;;;;24.92;15.20;;;;;;;;;;5032795;28;20037;-38
2023/03/07 08:44:40;;;;;;;31.25;17.55;;;;;;;;;;5021609;28;20155;-38
2023/03/07 08:47:05;;;;;;;25.98;15.35;;;;;;;;;;5027478;28;20087;-38
2023/03/07 08:49:31;;;;;;;26.38;15.27;;;;;;;;;;5037485;28;20029;-38
2023/03/07 08:51:59;;;;;;;25.65;15.00;;;;;;;;;;5033101;28;20037;-39
2023/03/07 08:54:26;;;;;;;30.27;14.88;;;;;;;;;;5031839;28;20079;-38
2023/03/07 08:56:52;;;;;;;25.17;14.65;;;;;;;;;;5025937;28;20079;-38
2023/03/07 08:59:17;;;;;;;26.20;13.95;;;;;;;;;;5035008;28;20486;-41
2023/03/07 09:01:43;;;;;;;25.60;14.82;;;;;;;;;;5025066;28;20041;-38
2023/03/07 09:04:08;;;;;;;26.63;14.10;;;;;;;;;;5027672;28;20647;-38
2023/03/07 09:06:33;;;;;;;22.10;13.77;;;;;;;;;;5026939;28;20044;-38
2023/03/07 09:09:05;;;;;;;28.85;14.27;;;;;;;;;;5024349;28;20103;-39
2023/03/07 09:11:30;;;;;;;29.03;14.37;;;;;;;;;;5029183;28;20576;-38
2023/03/07 09:13:56;;;;;;;24.83;14.05;;;;;;;;;;5030586;28;20432;-38
2023/03/07 09:16:22;;;;;;;29.10;14.05;;;;;;;;;;5036111;28;20066;-38
2023/03/07 09:18:48;;;;;;;24.83;13.43;;;;;;;;;;5030690;28;20427;-38
2023/03/07 09:21:16;;;;;;;24.45;14.88;;;;;;;;;;5030217;28;20049;-38
2023/03/07 09:23:42;;;;;;;21.88;13.20;;;;;;;;;;5028475;28;20123;-38
2023/03/07 09:26:07;;;;;;;25.10;13.90;;;;;;;;;;5029907;28;20148;-38
2023/03/07 09:28:33;;;;;;;27.70;14.35;;;;;;;;;;5034602;28;20032;-38
2023/03/07 09:30:59;;;;;;;30.70;18.77;;;;;;;;;;5030921;28;20060;-38
2023/03/07 09:33:33;;;;;;;31.58;18.08;;;;;;;;;;5021178;28;20025;-38
2023/03/07 09:35:58;;;;;;;30.80;17.40;;;;;;;;;;5026403;28;20627;-38
2023/03/07 09:38:23;;;;;;;29.25;15.57;;;;;;;;;;5030765;28;20478;-38
2023/03/07 09:40:49;;;;;;;25.27;15.85;;;;;;;;;;5029509;28;20025;-38
2023/03/07 09:43:21;;;;;;;28.20;15.40;;;;;;;;;;5029977;28;20045;-38
2023/03/07 09:46:08;;;;;;;25.40;14.93;;;;;;;;;;5022916;28;20029;-38
2023/03/07 09:49:04;;;;;;;23.80;15.02;;;;;;;;;;5024615;28;20559;-38
2023/03/07 09:51:38;;;;;;;24.33;14.02;;;;;;;;;;5027738;28;20383;-38
2023/03/07 09:54:20;;;;;;;26.83;13.75;;;;;;;;;;5024285;28;20123;-38
2023/03/07 09:57:00;;;;;;;18.83;13.15;;;;;;;;;;5025913;28;20049;-38
2023/03/07 09:59:38;;;;;;;25.33;15.27;;;;;;;;;;5029479;28;20041;-38
2023/03/07 10:02:18;;;;;;;30.90;12.88;;;;;;;;;;5036828;28;20033;-38
2023/03/07 10:05:13;;;;;;;18.25;11.82;;;;;;;;;;5025333;28;20090;-38
2023/03/07 10:07:39;;;;;;;25.63;13.32;;;;;;;;;;5033678;28;20041;-38
2023/03/07 10:10:27;;;;;;;22.20;14.07;;;;;;;;;;5031082;28;20028;-38
2023/03/07 10:13:05;;;;;;;20.63;13.68;;;;;;;;;;5019999;28;20042;-39
2023/03/07 10:15:54;;;;;;;22.92;13.25;;;;;;;;;;5031812;28;20029;-38
2023/03/07 10:18:50;;;;;;;24.20;15.02;;;;;;;;;;5034874;28;20050;-38
2023/03/07 10:21:40;;;;;;;24.85;13.52;;;;;;;;;;5032458;28;20460;-39
2023/03/07 10:24:33;;;;;;;27.05;15.52;;;;;;;;;;5026699;28;20112;-38
2023/03/07 10:27:06;;;;;;;29.23;15.27;;;;;;;;;;5028358;28;20608;-38
2023/03/07 10:29:41;;;;;;;32.72;16.75;;;;;;;;;;5030619;28;20045;-38
2023/03/07 10:32:29;;;;;;;29.10;15.63;;;;;;;;;;5029427;28;20056;-38
2023/03/07 10:35:15;;;;;;;32.40;16.45;;;;;;;;;;4969868;28;20039;-37
2023/03/07 10:37:59;;;;;;;27.75;15.48;;;;;;;;;;4969728;28;20045;-39
2023/03/07 10:40:36;;;;;;;34.03;17.02;;;;;;;;;;4972057;28;20038;-38
2023/03/07 10:43:09;;;;;;;28.38;16.85;;;;;;;;;;4964945;28;20039;-38
2023/03/07 10:45:36;;;;;;;32.70;16.60;;;;;;;;;;4963428;28;20062;-38
2023/03/07 10:48:06;;;;;;;38.53;16.25;;;;;;;;;;4966516;28;20047;-38
2023/03/07 10:50:57;;;;;;;25.23;16.63;;;;;;;;;;4973987;28;20117;-38
2023/03/07 10:53:27;;;;;;;30.55;16.08;;;;;;;;;;4970413;28;20058;-37
2023/03/07 10:56:15;;;;;;;23.52;16.05;;;;;;;;;;4976677;28;20120;-38
2023/03/07 10:59:08;;;;;;;29.48;15.38;;;;;;;;;;4972970;28;20090;-38
2023/03/07 11:01:35;;;;;;;27.85;16.05;;;;;;;;;;4973350;28;20503;-38
2023/03/07 11:04:00;;;;;;;26.45;14.77;;;;;;;;;;4976590;28;20602;-38
2023/03/07 11:06:39;;;;;;;24.77;13.68;;;;;;;;;;4972789;28;20056;-38
2023/03/07 11:09:20;;;;;;;21.63;14.10;;;;;;;;;;4968213;28;20031;-38
2023/03/07 11:11:48;;;;;;;21.63;13.82;;;;;;;;;;4997902;28;20501;-39
2023/03/07 11:14:13;;;;;;;20.20;12.88;;;;;;;;;;5035221;28;20385;-38
2023/03/07 11:16:41;;;;;;;20.05;13.07;;;;;;;;;;5031583;28;20041;-37
2023/03/07 11:19:40;;;;;;;22.13;12.48;;;;;;;;;;5024220;28;20030;-41
2023/03/07 11:22:35;;;;;;;19.35;12.50;;;;;;;;;;5023617;28;20045;-39
2023/03/07 11:25:16;;;;;;;21.67;12.25;;;;;;;;;;5033517;28;20500;-39
2023/03/07 11:27:45;;;;;;;22.50;12.15;;;;;;;;;;5027009;28;20641;-39
2023/03/07 11:30:33;;;;;;;17.30;11.68;;;;;;;;;;5018431;28;20017;-39
2023/03/07 11:33:18;;;;;;;18.38;11.70;;;;;;;;;;5027536;28;20052;-39
2023/03/07 11:36:01;;;;;;;20.65;10.68;;;;;;;;;;5033056;28;20466;-40
2023/03/07 11:38:41;;;;;;;18.20;10.85;;;;;;;;;;5025888;28;20042;-38
2023/03/07 11:41:27;;;;;;;17.20;10.82;;;;;;;;;;5028128;28;20034;-39
2023/03/07 11:44:23;;;;;;;17.95;10.05;;;;;;;;;;5024911;28;20029;-39
2023/03/07 11:46:52;;;;;;;17.98;10.77;;;;;;;;;;5030859;28;20120;-39
2023/03/07 11:49:29;;;;;;;17.25;11.02;;;;;;;;;;5023038;28;20057;-39
2023/03/07 11:52:10;;;;;;;25.60;11.73;;;;;;;;;;5025878;28;20061;-39
2023/03/07 11:54:47;;;;;;;16.70;10.50;;;;;;;;;;5025519;28;20084;-39
2023/03/07 11:57:30;;;;;;;22.35;9.95;;;;;;;;;;5025195;28;20068;-39
2023/03/07 12:00:24;;;;;;;15.60;9.95;;;;;;;;;;5028476;28;20718;-39
2023/03/07 12:03:08;;;;;;;17.05;10.77;;;;;;;;;;5019317;28;20786;-39
2023/03/07 12:05:39;;;;;;;14.77;10.18;;;;;;;;;;5024402;28;20381;-39
2023/03/07 12:08:25;;;;;;;19.00;11.25;;;;;;;;;;5023001;28;20092;-39
2023/03/07 12:11:21;;;;;;;15.60;9.90;;;;;;;;;;5025571;28;20119;-39
2023/03/07 12:14:05;;;;;;;20.27;12.00;;;;;;;;;;5026297;28;20045;-39
2023/03/07 12:17:06;;;;;;;20.98;9.85;;;;;;;;;;5023398;28;20049;-39
2023/03/07 12:20:15;;;;;;;25.45;10.60;;;;;;;;;;4982524;28;20521;-38
2023/03/07 12:22:58;;;;;;;14.02;10.02;;;;;;;;;;4981327;28;20042;-39
2023/03/07 12:25:31;;;;;;;15.95;10.27;;;;;;;;;;4985049;28;20045;-40
2023/03/07 12:28:05;;;;;;;19.20;9.88;;;;;;;;;;4985317;28;20069;-39
2023/03/07 12:30:41;;;;;;;18.67;10.40;;;;;;;;;;4986163;28;20057;-39
2023/03/07 12:33:32;;;;;;;12.57;9.20;;;;;;;;;;4984570;28;20075;-39
2023/03/07 12:36:07;;;;;;;17.00;9.18;;;;;;;;;;4979014;28;20039;-39
2023/03/07 12:38:41;;;;;;;16.90;10.05;;;;;;;;;;4982390;28;20034;-39
2023/03/07 12:41:21;;;;;;;15.15;9.75;;;;;;;;;;4982588;28;20030;-39
2023/03/07 12:43:57;;;;;;;16.25;9.88;;;;;;;;;;4982815;28;20517;-39
2023/03/07 12:46:36;;;;;;;20.20;10.43;;;;;;;;;;4978428;28;20202;-40
2023/03/07 12:49:12;;;;;;;24.13;9.60;;;;;;;;;;4981887;28;20956;-39
2023/03/07 12:51:45;;;;;;;19.30;10.57;;;;;;;;;;4982951;28;20070;-39
2023/03/07 12:54:28;;;;;;;13.57;9.00;;;;;;;;;;4983075;28;20080;-39
2023/03/07 12:56:57;;;;;;;22.77;10.80;;;;;;;;;;5017981;28;20029;-39
2023/03/07 12:59:29;;;;;;;13.20;9.25;;;;;;;;;;5025648;28;20041;-39
2023/03/07 13:02:00;;;;;;;17.90;10.45;;;;;;;;;;5028333;28;20479;-38
2023/03/07 13:04:34;;;;;;;25.55;10.60;;;;;;;;;;5028731;28;20033;-39
2023/03/07 13:07:09;;;;;;;16.27;9.77;;;;;;;;;;5030004;28;20033;-39
2023/03/07 13:09:41;;;;;;;18.67;10.65;;;;;;;;;;5030238;28;20042;-38
2023/03/07 13:12:18;;;;;;;19.95;10.45;;;;;;;;;;5022958;28;20045;-39
2023/03/07 13:14:46;;;;;;;17.60;10.55;;;;;;;;;;5026775;28;20039;-39
2023/03/07 13:17:32;;;;;;;17.33;10.38;;;;;;;;;;5029727;28;20129;-39
2023/03/07 13:20:18;;;;;;;19.85;9.68;;;;;;;;;;5032082;28;20029;-38
2023/03/07 13:22:49;;;;;;;24.10;10.32;;;;;;;;;;5022913;28;20042;-39
2023/03/07 13:25:18;;;;;;;16.33;9.95;;;;;;;;;;5030435;28;20028;-38
2023/03/07 13:28:01;;;;;;;14.02;9.35;;;;;;;;;;5034191;28;20044;-38
2023/03/07 13:30:32;;;;;;;13.50;9.60;;;;;;;;;;5029565;28;20034;-39
2023/03/07 13:33:26;;;;;;;11.30;9.23;;;;;;;;;;5028905;28;20045;-38
2023/03/07 13:36:03;;;;;;;13.15;9.50;;;;;;;;;;5026745;28;20148;-38
2023/03/07 13:38:45;;;;;;;22.02;12.00;;;;;;;;;;5029737;28;20053;-38
2023/03/07 13:41:34;;;;;;;15.13;9.95;;;;;;;;;;5037779;28;21603;-38
2023/03/07 13:44:01;;;;;;;15.52;9.18;;;;;;;;;;5040757;28;20024;-37
2023/03/07 13:46:41;;;;;;;16.40;10.18;;;;;;;;;;5034304;28;20464;-38
2023/03/07 13:49:06;;;;;;;18.55;9.88;;;;;;;;;;5035153;28;20444;-38
2023/03/07 13:51:32;;;;;;;17.02;10.02;;;;;;;;;;5037389;28;20094;-38
2023/03/07 13:54:09;;;;;;;26.13;11.13;;;;;;;;;;5036479;28;20040;-38
2023/03/07 13:56:39;;;;;;;17.13;9.20;;;;;;;;;;5038400;28;20481;-38
2023/03/07 13:59:20;;;;;;;17.90;8.95;;;;;;;;;;5043351;28;20025;-38
2023/03/07 14:01:51;;;;;;;13.85;9.70;;;;;;;;;;5023101;28;20045;-38
2023/03/07 14:04:28;;;;;;;13.85;9.40;;;;;;;;;;5017568;28;20477;-37
2023/03/07 14:07:03;;;;;;;20.88;9.32;;;;;;;;;;5033474;28;20136;-38
2023/03/07 14:09:43;;;;;;;13.07;8.98;;;;;;;;;;5032011;28;20036;-38
2023/03/07 14:12:50;;;;;;;16.77;9.57;;;;;;;;;;5036955;28;20079;-38
2023/03/07 14:15:43;;;;;;;16.15;9.23;;;;;;;;;;5033636;28;20095;-38
2023/03/07 14:18:43;;;;;;;16.75;8.98;;;;;;;;;;5031715;28;20041;-38
2023/03/07 14:21:18;;;;;;;10.95;8.13;;;;;;;;;;5024588;28;20492;-38
2023/03/07 14:24:02;;;;;;;12.00;8.77;;;;;;;;;;5032767;28;20129;-39
2023/03/07 14:26:34;;;;;;;15.98;9.77;;;;;;;;;;5026457;28;22588;-40
2023/03/07 14:29:25;;;;;;;22.08;9.60;;;;;;;;;;5022688;28;20033;-40
2023/03/07 14:31:53;;;;;;;14.32;9.95;;;;;;;;;;5020734;28;20125;-44
2023/03/07 14:34:30;;;;;;;22.10;10.35;;;;;;;;;;5032976;28;20064;-39
2023/03/07 14:37:03;;;;;;;19.98;9.43;;;;;;;;;;5024269;28;20501;-40
2023/03/07 14:39:38;;;;;;;18.90;10.38;;;;;;;;;;5034332;28;20083;-38
2023/03/07 14:42:27;;;;;;;15.32;9.57;;;;;;;;;;5032035;28;20037;-38
2023/03/07 14:45:30;;;;;;;16.17;10.23;;;;;;;;;;5033444;28;20113;-38